KMFE/MFE METAR and TAF weather

Enter ICAO airport designator
Station Type Date Time Source
KMFE METAR 2018/12/19 02:53 UTC NOAA

KMFE 190253Z 01003KT 10SM FEW036 16/14 A2996 RMK AO2 SLP143 T01610139 53016


Station Type Date Time Source
KMFE Decoded METAR 2018/12/19 02:53 UTC NOAA

MCALLEN MILLER INTERNATIONAL AIRPORT , TX, United States (KMFE) 26-11N 98-15W 38M
Dec 18, 2018 - 09:53 PM EST / 2018.12.19 0253 UTC
Wind: from the N (010 degrees) at 3 MPH (3 KT):0
Visibility: 10 mile(s):0
Sky conditions: mostly clear
Temperature: 61.0 F (16.1 C)
Dew Point: 57.0 F (13.9 C)
Relative Humidity: 86%
Pressure (altimeter): 29.96 in. Hg (1014 hPa)
Pressure tendency: 0.05 inches (1.6 hPa) higher than three hours ago
ob: KMFE 190253Z 01003KT 10SM FEW036 16/14 A2996 RMK AO2 SLP143 T01610139 53016
cycle: 3

Station Type Date Time Source
KMFE TAF 2018/12/18 18:36 UTC NOAA

TAF KMFE 181733Z 1818/1918 33004KT P6SM BKN150
FM182200 15006KT P6SM BKN040
FM190800 29002KT 5SM BR OVC030
FM191100 28003KT 3SM BR OVC015
TEMPO 1911/1915 VRB03KT 1/2SM FG VV005
FM191500 24006KT 6SM BR BKN020


Example: see airport list